Knot 7 — WDH4675 — position and weather

sailwx.info

Track history (hours):
 
Tides and Currents Weather Stations Pressure Air Temp Water Temp Dewpoint Dewpoint Depression Visibility Wind Speed Wind Dir Waves Ship Positions

Knot 7

Owner: NGL Marine, LLC, Houston, TX. More information available from US FCC via Universal Licensing System and Coast Guard Vessel Documentation Center.

Last reported at 2017-Dec-11 14:22 UTC. Time now 2017-Dec-12 21:59 UTC.
Position N 29°57' W 093°52'.

Length 5 m; draft 3.2 m.

Type: Towing. MMSI: 367620160.

Date/timePositionNaut miles runAvg speedWind from/ knotsBaromVisibWave heightAir tempDewpointWater temp
2017-Dec-11 14:22N 29°57' W 093°52'8 5.9
2017-Dec-11 13:01N 30°02' W 093°44'0 4.3
2017-Dec-11 13:00N 30°02' W 093°44'3 5.3
2017-Dec-11 12:29N 30°04' W 093°42'3 6.0
2017-Dec-11 12:00N 30°04' W 093°38'3 5.7
2017-Dec-11 11:30N 30°04' W 093°35'3 5.4
2017-Dec-11 11:00N 30°04' W 093°32'3 5.4
2017-Dec-11 10:30N 30°04' W 093°29'3 5.2
2017-Dec-11 10:00N 30°04' W 093°26'3 5.2
2017-Dec-11 09:30N 30°04' W 093°23'2 4.9
2017-Dec-11 09:00N 30°05' W 093°20'2 4.3
2017-Dec-11 08:30N 30°06' W 093°18'2 4.0
2017-Dec-11 08:00N 30°04' W 093°16'1 1.0
2017-Dec-11 07:30N 30°04' W 093°16'0 0.0
2017-Dec-11 07:00N 30°04' W 093°16'0 0.0
2017-Dec-11 06:30N 30°04' W 093°16'0 0.0
2017-Dec-11 06:00N 30°04' W 093°16'0 0.4
2017-Dec-11 05:30N 30°04' W 093°16'2 4.5
2017-Dec-11 05:00N 30°02' W 093°15'3 5.2
2017-Dec-11 04:30N 29°60' W 093°13'3 5.6
2017-Dec-11 04:00N 29°58' W 093°11'3 5.2
2017-Dec-11 03:30N 29°56' W 093°09'3 5.6
2017-Dec-11 03:00N 29°56' W 093°05'3 5.8
2017-Dec-11 02:30N 29°56' W 093°02'4 0.5
2017-Dec-10 18:18N 29°56' W 093°07'1 3.8
2017-Dec-10 18:00N 29°56' W 093°08'2 3.5
2017-Dec-10 17:30N 29°57' W 093°10'2 3.8
2017-Dec-10 17:00N 29°58' W 093°11'2 3.9
2017-Dec-10 16:30N 29°60' W 093°13'2 3.3
2017-Dec-10 16:00N 30°01' W 093°14'1 1.6
2017-Dec-10 15:30N 30°02' W 093°14'0 0.5
2017-Dec-10 15:00N 30°02' W 093°15'1 2.9
2017-Dec-10 14:30N 30°03' W 093°16'2 3.3
2017-Dec-10 14:00N 30°04' W 093°16'1 3.0
2017-Dec-10 13:30N 30°05' W 093°18'1 1.6
2017-Dec-10 13:00N 30°06' W 093°18'0 0.0
2017-Dec-10 12:30N 30°06' W 093°18'1 1.6
2017-Dec-10 12:00N 30°06' W 093°19'2 3.3
2017-Dec-10 11:30N 30°05' W 093°20'2 3.5
2017-Dec-10 11:00N 30°04' W 093°22'1 2.2
2017-Dec-10 10:30N 30°04' W 093°23'2 4.4
2017-Dec-10 10:00N 30°04' W 093°26'2 4.4
2017-Dec-10 09:30N 30°04' W 093°28'2 4.4
2017-Dec-10 09:00N 30°04' W 093°31'2 4.3
2017-Dec-10 08:30N 30°04' W 093°33'2 4.4
2017-Dec-10 08:00N 30°04' W 093°36'2 4.7
2017-Dec-10 07:30N 30°04' W 093°39'2 4.9
2017-Dec-10 07:00N 30°04' W 093°42'2 4.6
2017-Dec-10 06:30N 30°03' W 093°44'68 3.7
2017-Dec-09 12:02N 29°27' W 094°51'0 6.2
2017-Dec-09 12:00N 29°27' W 094°51'3 5.9
2017-Dec-09 11:30N 29°30' W 094°52'3 5.7
2017-Dec-09 11:01N 29°32' W 094°54'3 5.6
2017-Dec-09 10:31N 29°35' W 094°56'3 5.4
2017-Dec-09 10:01N 29°37' W 094°57'3 5.6
2017-Dec-09 09:31N 29°40' W 094°58'3 5.4
2017-Dec-09 09:01N 29°42' W 094°60'2 4.0
2017-Dec-09 08:31N 29°43' W 095°01'3 5.0
2017-Dec-09 08:00N 29°45' W 095°04'2 2.9
2017-Dec-09 07:29N 29°46' W 095°05'2 2.1
2017-Dec-09 06:42N 29°47' W 095°04'0 0.0
2017-Dec-09 06:17N 29°47' W 095°04'0 0.3
2017-Dec-09 06:01N 29°47' W 095°04'0 0.0
2017-Dec-09 05:30N 29°47' W 095°04'0 0.0
2017-Dec-09 05:00N 29°47' W 095°04'1 1.0
2017-Dec-09 04:21N 29°47' W 095°04'1 0.5
2017-Dec-09 02:24N 29°46' W 095°05'2 4.1
2017-Dec-09 01:57N 29°45' W 095°06'1 0.5
2017-Dec-08 23:08N 29°44' W 095°08'0 0.0
2017-Dec-08 22:55N 29°44' W 095°08'0 0.0
2017-Dec-08 22:31N 29°44' W 095°08'0 0.0
2017-Dec-08 14:11N 29°44' W 095°08'0 1.1
2017-Dec-08 13:57N 29°44' W 095°08'0 0.3
2017-Dec-08 12:26N 29°44' W 095°08'0 0.0
2017-Dec-08 11:55N 29°44' W 095°08'0 0.0
2017-Dec-08 11:28N 29°44' W 095°08'0 0.0
2017-Dec-08 10:56N 29°44' W 095°08'0 0.0
2017-Dec-08 08:25N 29°44' W 095°08'0 0.0
2017-Dec-08 07:59N 29°44' W 095°08'0 0.0
2017-Dec-08 07:29N 29°44' W 095°08'0 0.0
2017-Dec-08 06:53N 29°44' W 095°08'0 0.0
2017-Dec-08 06:30N 29°44' W 095°08'0 0.0
2017-Dec-08 05:54N 29°44' W 095°08'0 0.0
2017-Dec-08 05:30N 29°44' W 095°08'0 0.0
2017-Dec-08 04:59N 29°44' W 095°08'0 0.0
2017-Dec-08 04:29N 29°44' W 095°08'0 0.0
2017-Dec-08 03:58N 29°44' W 095°08'0 0.0
2017-Dec-08 03:24N 29°44' W 095°08'0 0.0
2017-Dec-08 02:48N 29°44' W 095°08'0 0.0
2017-Dec-08 01:31N 29°44' W 095°08'0 0.0
2017-Dec-08 01:01N 29°44' W 095°08'0 0.0
2017-Dec-07 22:36N 29°44' W 095°08'0 0.0
2017-Dec-07 22:23N 29°44' W 095°08'0 0.0
2017-Dec-07 21:58N 29°44' W 095°08'0 0.4
2017-Dec-07 21:31N 29°44' W 095°08'2 4.7
2017-Dec-07 20:59N 29°46' W 095°05'1 2.0
2017-Dec-07 20:27N 29°47' W 095°05'1 2.5
2017-Dec-07 19:58N 29°47' W 095°04'2 2.4
2017-Dec-07 19:20N 29°47' W 095°05'0 0.0
2017-Dec-07 19:01N 29°47' W 095°05'0 0.0
2017-Dec-07 18:28N 29°47' W 095°05'0 0.0
2017-Dec-07 17:58N 29°47' W 095°05'0 0.0
2017-Dec-07 17:30N 29°47' W 095°05'0 0.0
2017-Dec-07 17:00N 29°47' W 095°05'0 0.0
2017-Dec-07 16:27N 29°47' W 095°05'0 0.0
2017-Dec-07 15:48N 29°47' W 095°05'0 0.0
2017-Dec-07 15:28N 29°47' W 095°05'0 0.0
2017-Dec-07 14:59N 29°47' W 095°05'0 0.0
2017-Dec-07 14:30N 29°47' W 095°05'0 0.0
2017-Dec-07 14:00N 29°47' W 095°05'0 0.0
2017-Dec-07 13:30N 29°47' W 095°05'0 0.0
2017-Dec-07 13:00N 29°47' W 095°05'0 0.0
2017-Dec-07 12:30N 29°47' W 095°05'0 0.0
2017-Dec-07 11:59N 29°47' W 095°05'0 0.0
2017-Dec-07 11:30N 29°47' W 095°05'0 0.0
2017-Dec-07 11:00N 29°47' W 095°05'0 0.0
2017-Dec-07 10:30N 29°47' W 095°05'0 0.0
2017-Dec-07 10:00N 29°47' W 095°05'0 0.0
2017-Dec-07 09:29N 29°47' W 095°05'0 0.0
2017-Dec-07 08:58N 29°47' W 095°05'0 0.0
2017-Dec-07 08:30N 29°47' W 095°05'0 0.0
2017-Dec-07 08:00N 29°47' W 095°05'0 0.0
2017-Dec-07 07:31N 29°47' W 095°05'0 0.0
2017-Dec-07 06:59N 29°47' W 095°05'0 0.0
2017-Dec-07 06:19N 29°47' W 095°05'0 0.0
2017-Dec-07 02:38N 29°47' W 095°05'0 0.0
2017-Dec-07 02:24N 29°47' W 095°05'  
2017-Dec-03 10:03N 29°47' W 095°05'0 0.0
2017-Dec-03 09:35N 29°47' W 095°05'0 0.0
2017-Dec-03 09:24N 29°47' W 095°05'0 0.0
2017-Dec-03 08:46N 29°47' W 095°05'0 0.0
2017-Dec-03 08:25N 29°47' W 095°05'0 0.0
2017-Dec-03 05:22N 29°47' W 095°05'0 0.0
2017-Dec-03 04:59N 29°47' W 095°05'0 0.0
2017-Dec-03 04:30N 29°47' W 095°05'0 0.4
2017-Dec-03 04:00N 29°47' W 095°05'1 2.0
2017-Dec-03 03:19N 29°47' W 095°04'1 2.3
2017-Dec-03 02:58N 29°47' W 095°04'2 3.5
2017-Dec-03 02:30N 29°45' W 095°04'3 5.6
2017-Dec-03 02:01N 29°44' W 095°01'3 5.5
2017-Dec-03 01:31N 29°42' W 094°59'3 6.2
2017-Dec-03 01:00N 29°39' W 094°58'3 6.4
2017-Dec-03 00:30N 29°36' W 094°57'3 6.6
2017-Dec-03 00:01N 29°33' W 094°54'  
Track history (hours):
 
Tides and Currents Weather Stations Pressure Air Temp Water Temp Dewpoint Dewpoint Depression Visibility Wind Speed Wind Dir Waves Ship Positions

Knot 7

Owner: NGL Marine, LLC, Houston, TX. More information available from US FCC via Universal Licensing System and Coast Guard Vessel Documentation Center.

Last reported at 2017-Dec-11 14:22 UTC. Time now 2017-Dec-12 21:59 UTC.
Position N 29°57' W 093°52'.

Length 5 m; draft 3.2 m.

Type: Towing. MMSI: 367620160.

Date/timePositionNaut miles runAvg speedWind from/ knotsBaromVisibWave heightAir tempDewpointWater temp
2017-Dec-11 14:22N 29°57' W 093°52'8 5.9
2017-Dec-11 13:01N 30°02' W 093°44'0 4.3
2017-Dec-11 13:00N 30°02' W 093°44'3 5.3
2017-Dec-11 12:29N 30°04' W 093°42'3 6.0
2017-Dec-11 12:00N 30°04' W 093°38'3 5.7
2017-Dec-11 11:30N 30°04' W 093°35'3 5.4
2017-Dec-11 11:00N 30°04' W 093°32'3 5.4
2017-Dec-11 10:30N 30°04' W 093°29'3 5.2
2017-Dec-11 10:00N 30°04' W 093°26'3 5.2
2017-Dec-11 09:30N 30°04' W 093°23'2 4.9
2017-Dec-11 09:00N 30°05' W 093°20'2 4.3
2017-Dec-11 08:30N 30°06' W 093°18'2 4.0
2017-Dec-11 08:00N 30°04' W 093°16'1 1.0
2017-Dec-11 07:30N 30°04' W 093°16'0 0.0
2017-Dec-11 07:00N 30°04' W 093°16'0 0.0
2017-Dec-11 06:30N 30°04' W 093°16'0 0.0
2017-Dec-11 06:00N 30°04' W 093°16'0 0.4
2017-Dec-11 05:30N 30°04' W 093°16'2 4.5
2017-Dec-11 05:00N 30°02' W 093°15'3 5.2
2017-Dec-11 04:30N 29°60' W 093°13'3 5.6
2017-Dec-11 04:00N 29°58' W 093°11'3 5.2
2017-Dec-11 03:30N 29°56' W 093°09'3 5.6
2017-Dec-11 03:00N 29°56' W 093°05'3 5.8
2017-Dec-11 02:30N 29°56' W 093°02'4 0.5
2017-Dec-10 18:18N 29°56' W 093°07'1 3.8
2017-Dec-10 18:00N 29°56' W 093°08'2 3.5
2017-Dec-10 17:30N 29°57' W 093°10'2 3.8
2017-Dec-10 17:00N 29°58' W 093°11'2 3.9
2017-Dec-10 16:30N 29°60' W 093°13'2 3.3
2017-Dec-10 16:00N 30°01' W 093°14'1 1.6
2017-Dec-10 15:30N 30°02' W 093°14'0 0.5
2017-Dec-10 15:00N 30°02' W 093°15'1 2.9
2017-Dec-10 14:30N 30°03' W 093°16'2 3.3
2017-Dec-10 14:00N 30°04' W 093°16'1 3.0
2017-Dec-10 13:30N 30°05' W 093°18'1 1.6
2017-Dec-10 13:00N 30°06' W 093°18'0 0.0
2017-Dec-10 12:30N 30°06' W 093°18'1 1.6
2017-Dec-10 12:00N 30°06' W 093°19'2 3.3
2017-Dec-10 11:30N 30°05' W 093°20'2 3.5
2017-Dec-10 11:00N 30°04' W 093°22'1 2.2
2017-Dec-10 10:30N 30°04' W 093°23'2 4.4
2017-Dec-10 10:00N 30°04' W 093°26'2 4.4
2017-Dec-10 09:30N 30°04' W 093°28'2 4.4
2017-Dec-10 09:00N 30°04' W 093°31'2 4.3
2017-Dec-10 08:30N 30°04' W 093°33'2 4.4
2017-Dec-10 08:00N 30°04' W 093°36'2 4.7
2017-Dec-10 07:30N 30°04' W 093°39'2 4.9
2017-Dec-10 07:00N 30°04' W 093°42'2 4.6
2017-Dec-10 06:30N 30°03' W 093°44'68 3.7
2017-Dec-09 12:02N 29°27' W 094°51'0 6.2
2017-Dec-09 12:00N 29°27' W 094°51'3 5.9
2017-Dec-09 11:30N 29°30' W 094°52'3 5.7
2017-Dec-09 11:01N 29°32' W 094°54'3 5.6
2017-Dec-09 10:31N 29°35' W 094°56'3 5.4
2017-Dec-09 10:01N 29°37' W 094°57'3 5.6
2017-Dec-09 09:31N 29°40' W 094°58'3 5.4
2017-Dec-09 09:01N 29°42' W 094°60'2 4.0
2017-Dec-09 08:31N 29°43' W 095°01'3 5.0
2017-Dec-09 08:00N 29°45' W 095°04'2 2.9
2017-Dec-09 07:29N 29°46' W 095°05'2 2.1
2017-Dec-09 06:42N 29°47' W 095°04'0 0.0
2017-Dec-09 06:17N 29°47' W 095°04'0 0.3
2017-Dec-09 06:01N 29°47' W 095°04'0 0.0
2017-Dec-09 05:30N 29°47' W 095°04'0 0.0
2017-Dec-09 05:00N 29°47' W 095°04'1 1.0
2017-Dec-09 04:21N 29°47' W 095°04'1 0.5
2017-Dec-09 02:24N 29°46' W 095°05'2 4.1
2017-Dec-09 01:57N 29°45' W 095°06'1 0.5
2017-Dec-08 23:08N 29°44' W 095°08'0 0.0
2017-Dec-08 22:55N 29°44' W 095°08'0 0.0
2017-Dec-08 22:31N 29°44' W 095°08'0 0.0
2017-Dec-08 14:11N 29°44' W 095°08'0 1.1
2017-Dec-08 13:57N 29°44' W 095°08'0 0.3
2017-Dec-08 12:26N 29°44' W 095°08'0 0.0
2017-Dec-08 11:55N 29°44' W 095°08'0 0.0
2017-Dec-08 11:28N 29°44' W 095°08'0 0.0
2017-Dec-08 10:56N 29°44' W 095°08'0 0.0
2017-Dec-08 08:25N 29°44' W 095°08'0 0.0
2017-Dec-08 07:59N 29°44' W 095°08'0 0.0
2017-Dec-08 07:29N 29°44' W 095°08'0 0.0
2017-Dec-08 06:53N 29°44' W 095°08'0 0.0
2017-Dec-08 06:30N 29°44' W 095°08'0 0.0
2017-Dec-08 05:54N 29°44' W 095°08'0 0.0
2017-Dec-08 05:30N 29°44' W 095°08'0 0.0
2017-Dec-08 04:59N 29°44' W 095°08'0 0.0
2017-Dec-08 04:29N 29°44' W 095°08'0 0.0
2017-Dec-08 03:58N 29°44' W 095°08'0 0.0
2017-Dec-08 03:24N 29°44' W 095°08'0 0.0
2017-Dec-08 02:48N 29°44' W 095°08'0 0.0
2017-Dec-08 01:31N 29°44' W 095°08'0 0.0
2017-Dec-08 01:01N 29°44' W 095°08'0 0.0
2017-Dec-07 22:36N 29°44' W 095°08'0 0.0
2017-Dec-07 22:23N 29°44' W 095°08'0 0.0
2017-Dec-07 21:58N 29°44' W 095°08'0 0.4
2017-Dec-07 21:31N 29°44' W 095°08'2 4.7
2017-Dec-07 20:59N 29°46' W 095°05'1 2.0
2017-Dec-07 20:27N 29°47' W 095°05'1 2.5
2017-Dec-07 19:58N 29°47' W 095°04'2 2.4
2017-Dec-07 19:20N 29°47' W 095°05'0 0.0
2017-Dec-07 19:01N 29°47' W 095°05'0 0.0
2017-Dec-07 18:28N 29°47' W 095°05'0 0.0
2017-Dec-07 17:58N 29°47' W 095°05'0 0.0
2017-Dec-07 17:30N 29°47' W 095°05'0 0.0
2017-Dec-07 17:00N 29°47' W 095°05'0 0.0
2017-Dec-07 16:27N 29°47' W 095°05'0 0.0
2017-Dec-07 15:48N 29°47' W 095°05'0 0.0
2017-Dec-07 15:28N 29°47' W 095°05'0 0.0
2017-Dec-07 14:59N 29°47' W 095°05'0 0.0
2017-Dec-07 14:30N 29°47' W 095°05'0 0.0
2017-Dec-07 14:00N 29°47' W 095°05'0 0.0
2017-Dec-07 13:30N 29°47' W 095°05'0 0.0
2017-Dec-07 13:00N 29°47' W 095°05'0 0.0
2017-Dec-07 12:30N 29°47' W 095°05'0 0.0
2017-Dec-07 11:59N 29°47' W 095°05'0 0.0
2017-Dec-07 11:30N 29°47' W 095°05'0 0.0
2017-Dec-07 11:00N 29°47' W 095°05'0 0.0
2017-Dec-07 10:30N 29°47' W 095°05'0 0.0
2017-Dec-07 10:00N 29°47' W 095°05'0 0.0
2017-Dec-07 09:29N 29°47' W 095°05'0 0.0
2017-Dec-07 08:58N 29°47' W 095°05'0 0.0
2017-Dec-07 08:30N 29°47' W 095°05'0 0.0
2017-Dec-07 08:00N 29°47' W 095°05'0 0.0
2017-Dec-07 07:31N 29°47' W 095°05'0 0.0
2017-Dec-07 06:59N 29°47' W 095°05'0 0.0
2017-Dec-07 06:19N 29°47' W 095°05'0 0.0
2017-Dec-07 02:38N 29°47' W 095°05'0 0.0
2017-Dec-07 02:24N 29°47' W 095°05'  
2017-Dec-03 10:03N 29°47' W 095°05'0 0.0
2017-Dec-03 09:35N 29°47' W 095°05'0 0.0
2017-Dec-03 09:24N 29°47' W 095°05'0 0.0
2017-Dec-03 08:46N 29°47' W 095°05'0 0.0
2017-Dec-03 08:25N 29°47' W 095°05'0 0.0
2017-Dec-03 05:22N 29°47' W 095°05'0 0.0
2017-Dec-03 04:59N 29°47' W 095°05'0 0.0
2017-Dec-03 04:30N 29°47' W 095°05'0 0.4
2017-Dec-03 04:00N 29°47' W 095°05'1 2.0
2017-Dec-03 03:19N 29°47' W 095°04'1 2.3
2017-Dec-03 02:58N 29°47' W 095°04'2 3.5
2017-Dec-03 02:30N 29°45' W 095°04'3 5.6
2017-Dec-03 02:01N 29°44' W 095°01'3 5.5
2017-Dec-03 01:31N 29°42' W 094°59'3 6.2
2017-Dec-03 01:00N 29°39' W 094°58'3 6.4
2017-Dec-03 00:30N 29°36' W 094°57'3 6.6
2017-Dec-03 00:01N 29°33' W 094°54'  

Dump ship's entire track history